sensor_id;sensor_type;location;lat;lon;timestamp;P1;durP1;ratioP1;P2;durP2;ratioP2
36855;SDS011;22788;51.434;6.786;2023-05-10T00:00:20;6.80;;;4.93;;
36855;SDS011;22788;51.434;6.786;2023-05-10T00:02:46;8.85;;;6.70;;
36855;SDS011;22788;51.434;6.786;2023-05-10T00:05:12;5.53;;;3.67;;
36855;SDS011;22788;51.434;6.786;2023-05-10T00:07:37;7.00;;;5.35;;
36855;SDS011;22788;51.434;6.786;2023-05-10T00:10:05;4.43;;;3.90;;
36855;SDS011;22788;51.434;6.786;2023-05-10T00:12:31;5.38;;;3.88;;
36855;SDS011;22788;51.434;6.786;2023-05-10T00:14:57;5.55;;;3.85;;
36855;SDS011;22788;51.434;6.786;2023-05-10T00:17:22;7.57;;;5.53;;
36855;SDS011;22788;51.434;6.786;2023-05-10T00:19:48;4.53;;;3.80;;
36855;SDS011;22788;51.434;6.786;2023-05-10T00:22:13;5.45;;;4.50;;
36855;SDS011;22788;51.434;6.786;2023-05-10T00:24:39;6.78;;;5.00;;
36855;SDS011;22788;51.434;6.786;2023-05-10T00:27:06;4.75;;;3.53;;
36855;SDS011;22788;51.434;6.786;2023-05-10T00:29:32;6.10;;;4.50;;
36855;SDS011;22788;51.434;6.786;2023-05-10T00:31:57;9.32;;;4.40;;
36855;SDS011;22788;51.434;6.786;2023-05-10T00:34:23;5.32;;;3.80;;
36855;SDS011;22788;51.434;6.786;2023-05-10T00:36:48;4.97;;;4.35;;
36855;SDS011;22788;51.434;6.786;2023-05-10T00:39:14;8.10;;;5.65;;
36855;SDS011;22788;51.434;6.786;2023-05-10T00:41:39;5.45;;;4.22;;
36855;SDS011;22788;51.434;6.786;2023-05-10T00:44:06;5.68;;;4.18;;
36855;SDS011;22788;51.434;6.786;2023-05-10T00:46:32;8.10;;;4.30;;
36855;SDS011;22788;51.434;6.786;2023-05-10T00:48:58;4.65;;;3.75;;
36855;SDS011;22788;51.434;6.786;2023-05-10T00:51:24;4.47;;;3.70;;
36855;SDS011;22788;51.434;6.786;2023-05-10T00:53:49;5.78;;;4.18;;
36855;SDS011;22788;51.434;6.786;2023-05-10T00:56:16;5.00;;;3.55;;
36855;SDS011;22788;51.434;6.786;2023-05-10T00:58:41;6.13;;;3.67;;
36855;SDS011;22788;51.434;6.786;2023-05-10T01:01:08;6.75;;;4.45;;
36855;SDS011;22788;51.434;6.786;2023-05-10T01:03:35;7.22;;;4.30;;
36855;SDS011;22788;51.434;6.786;2023-05-10T01:06:01;5.90;;;3.80;;
36855;SDS011;22788;51.434;6.786;2023-05-10T01:08:27;5.68;;;3.78;;
36855;SDS011;22788;51.434;6.786;2023-05-10T01:10:53;6.57;;;3.78;;
36855;SDS011;22788;51.434;6.786;2023-05-10T01:13:23;8.82;;;5.07;;
36855;SDS011;22788;51.434;6.786;2023-05-10T01:15:55;6.18;;;4.25;;
36855;SDS011;22788;51.434;6.786;2023-05-10T01:18:23;4.10;;;3.60;;
36855;SDS011;22788;51.434;6.786;2023-05-10T01:20:53;6.68;;;5.28;;
36855;SDS011;22788;51.434;6.786;2023-05-10T01:23:31;5.43;;;4.90;;
36855;SDS011;22788;51.434;6.786;2023-05-10T01:29:11;5.60;;;4.75;;
36855;SDS011;22788;51.434;6.786;2023-05-10T01:31:56;6.90;;;5.30;;
36855;SDS011;22788;51.434;6.786;2023-05-10T01:34:32;5.90;;;4.78;;
36855;SDS011;22788;51.434;6.786;2023-05-10T01:37:06;4.50;;;4.07;;
36855;SDS011;22788;51.434;6.786;2023-05-10T01:39:36;6.28;;;5.15;;
36855;SDS011;22788;51.434;6.786;2023-05-10T01:42:10;5.53;;;4.50;;
36855;SDS011;22788;51.434;6.786;2023-05-10T01:44:39;5.60;;;4.35;;
36855;SDS011;22788;51.434;6.786;2023-05-10T01:47:12;4.32;;;3.38;;
36855;SDS011;22788;51.434;6.786;2023-05-10T01:49:43;6.22;;;4.40;;
36855;SDS011;22788;51.434;6.786;2023-05-10T01:52:12;6.38;;;3.67;;
36855;SDS011;22788;51.434;6.786;2023-05-10T01:54:41;3.65;;;3.05;;
36855;SDS011;22788;51.434;6.786;2023-05-10T01:57:08;5.45;;;4.25;;
36855;SDS011;22788;51.434;6.786;2023-05-10T01:59:38;5.15;;;3.65;;
36855;SDS011;22788;51.434;6.786;2023-05-10T02:02:05;4.55;;;3.70;;
36855;SDS011;22788;51.434;6.786;2023-05-10T02:04:33;5.20;;;3.80;;
36855;SDS011;22788;51.434;6.786;2023-05-10T02:07:02;6.25;;;4.25;;
36855;SDS011;22788;51.434;6.786;2023-05-10T02:09:28;5.22;;;3.80;;
36855;SDS011;22788;51.434;6.786;2023-05-10T02:11:57;4.60;;;3.40;;
36855;SDS011;22788;51.434;6.786;2023-05-10T02:14:24;4.88;;;3.30;;
36855;SDS011;22788;51.434;6.786;2023-05-10T02:16:51;3.35;;;3.03;;
36855;SDS011;22788;51.434;6.786;2023-05-10T02:19:20;4.93;;;3.78;;
36855;SDS011;22788;51.434;6.786;2023-05-10T02:21:49;5.97;;;3.80;;
36855;SDS011;22788;51.434;6.786;2023-05-10T02:24:16;6.60;;;3.45;;
36855;SDS011;22788;51.434;6.786;2023-05-10T02:26:44;5.25;;;3.38;;
36855;SDS011;22788;51.434;6.786;2023-05-10T02:29:11;5.40;;;4.07;;
36855;SDS011;22788;51.434;6.786;2023-05-10T02:31:39;4.20;;;3.70;;
36855;SDS011;22788;51.434;6.786;2023-05-10T02:34:05;5.35;;;4.03;;
36855;SDS011;22788;51.434;6.786;2023-05-10T02:36:33;5.50;;;4.15;;
36855;SDS011;22788;51.434;6.786;2023-05-10T02:39:01;5.07;;;3.90;;
36855;SDS011;22788;51.434;6.786;2023-05-10T02:41:27;7.93;;;3.88;;
36855;SDS011;22788;51.434;6.786;2023-05-10T02:43:55;6.07;;;4.07;;
36855;SDS011;22788;51.434;6.786;2023-05-10T02:46:24;4.03;;;3.38;;
36855;SDS011;22788;51.434;6.786;2023-05-10T02:48:50;6.07;;;4.30;;
36855;SDS011;22788;51.434;6.786;2023-05-10T02:51:16;8.80;;;5.70;;
36855;SDS011;22788;51.434;6.786;2023-05-10T02:53:45;8.55;;;5.72;;
36855;SDS011;22788;51.434;6.786;2023-05-10T02:56:15;5.28;;;4.43;;
36855;SDS011;22788;51.434;6.786;2023-05-10T02:58:48;5.85;;;4.57;;
36855;SDS011;22788;51.434;6.786;2023-05-10T03:01:14;5.07;;;4.25;;
36855;SDS011;22788;51.434;6.786;2023-05-10T03:03:39;5.65;;;4.30;;
36855;SDS011;22788;51.434;6.786;2023-05-10T03:06:05;6.30;;;4.68;;
36855;SDS011;22788;51.434;6.786;2023-05-10T03:08:30;5.97;;;4.22;;
36855;SDS011;22788;51.434;6.786;2023-05-10T03:11:00;4.68;;;3.97;;
36855;SDS011;22788;51.434;6.786;2023-05-10T03:13:37;6.03;;;4.28;;
36855;SDS011;22788;51.434;6.786;2023-05-10T03:16:10;6.38;;;4.47;;
36855;SDS011;22788;51.434;6.786;2023-05-10T03:18:41;4.55;;;4.05;;
36855;SDS011;22788;51.434;6.786;2023-05-10T03:21:10;4.35;;;3.95;;
36855;SDS011;22788;51.434;6.786;2023-05-10T03:23:39;5.45;;;4.65;;
36855;SDS011;22788;51.434;6.786;2023-05-10T03:26:07;7.22;;;4.93;;
36855;SDS011;22788;51.434;6.786;2023-05-10T03:28:34;6.68;;;4.75;;
36855;SDS011;22788;51.434;6.786;2023-05-10T03:31:01;3.85;;;3.38;;
36855;SDS011;22788;51.434;6.786;2023-05-10T03:33:29;5.53;;;3.85;;
36855;SDS011;22788;51.434;6.786;2023-05-10T03:35:54;5.20;;;4.40;;
36855;SDS011;22788;51.434;6.786;2023-05-10T03:38:20;5.03;;;4.15;;
36855;SDS011;22788;51.434;6.786;2023-05-10T03:40:46;5.28;;;4.38;;
36855;SDS011;22788;51.434;6.786;2023-05-10T03:43:11;5.70;;;4.68;;
36855;SDS011;22788;51.434;6.786;2023-05-10T03:45:38;5.45;;;4.70;;
36855;SDS011;22788;51.434;6.786;2023-05-10T03:48:04;5.45;;;4.18;;
36855;SDS011;22788;51.434;6.786;2023-05-10T03:50:30;6.05;;;4.88;;
36855;SDS011;22788;51.434;6.786;2023-05-10T03:52:56;7.65;;;5.53;;
36855;SDS011;22788;51.434;6.786;2023-05-10T03:55:21;5.05;;;4.03;;
36855;SDS011;22788;51.434;6.786;2023-05-10T03:57:47;6.72;;;4.35;;
36855;SDS011;22788;51.434;6.786;2023-05-10T04:00:13;5.35;;;4.10;;
36855;SDS011;22788;51.434;6.786;2023-05-10T04:02:40;4.45;;;3.83;;
36855;SDS011;22788;51.434;6.786;2023-05-10T04:05:06;6.20;;;4.22;;
36855;SDS011;22788;51.434;6.786;2023-05-10T04:07:32;5.57;;;4.30;;
36855;SDS011;22788;51.434;6.786;2023-05-10T04:09:57;5.80;;;4.10;;
36855;SDS011;22788;51.434;6.786;2023-05-10T04:12:23;6.38;;;4.43;;
36855;SDS011;22788;51.434;6.786;2023-05-10T04:14:49;6.13;;;4.47;;
36855;SDS011;22788;51.434;6.786;2023-05-10T04:17:15;10.13;;;6.07;;
36855;SDS011;22788;51.434;6.786;2023-05-10T04:19:41;9.43;;;6.95;;
36855;SDS011;22788;51.434;6.786;2023-05-10T04:22:07;9.52;;;6.82;;
36855;SDS011;22788;51.434;6.786;2023-05-10T04:24:33;7.80;;;5.20;;
36855;SDS011;22788;51.434;6.786;2023-05-10T04:26:58;7.18;;;4.85;;
36855;SDS011;22788;51.434;6.786;2023-05-10T04:29:24;6.97;;;5.30;;
36855;SDS011;22788;51.434;6.786;2023-05-10T04:31:49;8.27;;;6.38;;
36855;SDS011;22788;51.434;6.786;2023-05-10T04:34:15;8.75;;;6.10;;
36855;SDS011;22788;51.434;6.786;2023-05-10T04:36:42;7.47;;;5.75;;
36855;SDS011;22788;51.434;6.786;2023-05-10T04:39:07;8.80;;;7.03;;
36855;SDS011;22788;51.434;6.786;2023-05-10T04:41:33;10.52;;;8.13;;
36855;SDS011;22788;51.434;6.786;2023-05-10T04:43:59;8.27;;;5.80;;
36855;SDS011;22788;51.434;6.786;2023-05-10T04:46:24;9.80;;;6.85;;
36855;SDS011;22788;51.434;6.786;2023-05-10T04:48:50;7.90;;;5.72;;
36855;SDS011;22788;51.434;6.786;2023-05-10T04:51:15;13.35;;;8.95;;
36855;SDS011;22788;51.434;6.786;2023-05-10T04:53:42;10.63;;;7.55;;
36855;SDS011;22788;51.434;6.786;2023-05-10T04:56:08;11.80;;;8.50;;
36855;SDS011;22788;51.434;6.786;2023-05-10T04:58:33;7.72;;;5.75;;
36855;SDS011;22788;51.434;6.786;2023-05-10T05:01:04;13.95;;;9.05;;
36855;SDS011;22788;51.434;6.786;2023-05-10T05:03:30;9.40;;;6.40;;
36855;SDS011;22788;51.434;6.786;2023-05-10T05:05:57;10.60;;;7.22;;
36855;SDS011;22788;51.434;6.786;2023-05-10T05:08:23;14.00;;;7.28;;
36855;SDS011;22788;51.434;6.786;2023-05-10T05:10:50;12.73;;;8.82;;
36855;SDS011;22788;51.434;6.786;2023-05-10T05:13:16;10.15;;;7.38;;
36855;SDS011;22788;51.434;6.786;2023-05-10T05:15:41;13.80;;;9.65;;
36855;SDS011;22788;51.434;6.786;2023-05-10T05:18:07;12.68;;;7.68;;
36855;SDS011;22788;51.434;6.786;2023-05-10T05:20:32;11.10;;;8.30;;
36855;SDS011;22788;51.434;6.786;2023-05-10T05:22:58;11.27;;;7.60;;
36855;SDS011;22788;51.434;6.786;2023-05-10T05:25:24;11.75;;;6.82;;
36855;SDS011;22788;51.434;6.786;2023-05-10T05:27:51;10.90;;;7.50;;
36855;SDS011;22788;51.434;6.786;2023-05-10T05:30:17;14.77;;;9.60;;
36855;SDS011;22788;51.434;6.786;2023-05-10T05:32:42;14.10;;;8.52;;
36855;SDS011;22788;51.434;6.786;2023-05-10T05:35:09;11.30;;;7.95;;
36855;SDS011;22788;51.434;6.786;2023-05-10T05:37:34;10.65;;;7.63;;
36855;SDS011;22788;51.434;6.786;2023-05-10T05:40:00;11.07;;;7.80;;
36855;SDS011;22788;51.434;6.786;2023-05-10T05:42:26;14.73;;;9.82;;
36855;SDS011;22788;51.434;6.786;2023-05-10T05:44:53;14.70;;;10.50;;
36855;SDS011;22788;51.434;6.786;2023-05-10T05:47:18;15.90;;;9.43;;
36855;SDS011;22788;51.434;6.786;2023-05-10T05:49:44;15.85;;;9.93;;
36855;SDS011;22788;51.434;6.786;2023-05-10T05:52:09;19.17;;;12.52;;
36855;SDS011;22788;51.434;6.786;2023-05-10T05:54:35;17.13;;;11.18;;
36855;SDS011;22788;51.434;6.786;2023-05-10T05:57:00;15.07;;;9.93;;
36855;SDS011;22788;51.434;6.786;2023-05-10T05:59:26;15.40;;;9.77;;
36855;SDS011;22788;51.434;6.786;2023-05-10T06:01:53;14.40;;;9.48;;
36855;SDS011;22788;51.434;6.786;2023-05-10T06:04:19;14.25;;;9.20;;
36855;SDS011;22788;51.434;6.786;2023-05-10T06:06:44;14.93;;;9.20;;
36855;SDS011;22788;51.434;6.786;2023-05-10T06:09:10;18.63;;;11.18;;
36855;SDS011;22788;51.434;6.786;2023-05-10T06:11:37;14.55;;;9.48;;
36855;SDS011;22788;51.434;6.786;2023-05-10T06:14:02;24.02;;;15.57;;
36855;SDS011;22788;51.434;6.786;2023-05-10T06:16:29;16.58;;;10.82;;
36855;SDS011;22788;51.434;6.786;2023-05-10T06:18:56;19.17;;;11.82;;
36855;SDS011;22788;51.434;6.786;2023-05-10T06:21:21;22.23;;;13.70;;
36855;SDS011;22788;51.434;6.786;2023-05-10T06:23:47;22.13;;;13.25;;
36855;SDS011;22788;51.434;6.786;2023-05-10T06:26:13;15.25;;;11.00;;
36855;SDS011;22788;51.434;6.786;2023-05-10T06:28:38;19.58;;;13.20;;
36855;SDS011;22788;51.434;6.786;2023-05-10T06:31:04;19.73;;;12.57;;
36855;SDS011;22788;51.434;6.786;2023-05-10T06:33:29;19.83;;;14.20;;
36855;SDS011;22788;51.434;6.786;2023-05-10T06:35:56;16.60;;;10.30;;
36855;SDS011;22788;51.434;6.786;2023-05-10T06:38:22;17.23;;;11.75;;
36855;SDS011;22788;51.434;6.786;2023-05-10T06:40:48;17.20;;;11.45;;
36855;SDS011;22788;51.434;6.786;2023-05-10T06:43:13;18.05;;;11.77;;
36855;SDS011;22788;51.434;6.786;2023-05-10T06:45:39;16.95;;;11.18;;
36855;SDS011;22788;51.434;6.786;2023-05-10T06:48:05;25.65;;;15.50;;
36855;SDS011;22788;51.434;6.786;2023-05-10T06:50:30;22.35;;;13.57;;
36855;SDS011;22788;51.434;6.786;2023-05-10T06:52:57;30.50;;;17.58;;
36855;SDS011;22788;51.434;6.786;2023-05-10T06:55:23;21.17;;;13.00;;
36855;SDS011;22788;51.434;6.786;2023-05-10T06:57:48;23.88;;;14.15;;
36855;SDS011;22788;51.434;6.786;2023-05-10T07:00:14;21.15;;;14.15;;
36855;SDS011;22788;51.434;6.786;2023-05-10T07:02:40;21.60;;;12.60;;
36855;SDS011;22788;51.434;6.786;2023-05-10T07:05:06;22.27;;;13.75;;
36855;SDS011;22788;51.434;6.786;2023-05-10T07:07:32;21.65;;;12.63;;
36855;SDS011;22788;51.434;6.786;2023-05-10T07:09:59;27.30;;;16.10;;
36855;SDS011;22788;51.434;6.786;2023-05-10T07:12:25;23.30;;;14.60;;
36855;SDS011;22788;51.434;6.786;2023-05-10T07:14:50;21.67;;;13.48;;
36855;SDS011;22788;51.434;6.786;2023-05-10T07:17:16;22.15;;;12.35;;
36855;SDS011;22788;51.434;6.786;2023-05-10T07:19:42;31.27;;;17.23;;
36855;SDS011;22788;51.434;6.786;2023-05-10T07:22:07;21.52;;;13.27;;
36855;SDS011;22788;51.434;6.786;2023-05-10T07:24:33;25.75;;;14.02;;
36855;SDS011;22788;51.434;6.786;2023-05-10T07:27:00;21.58;;;14.27;;
36855;SDS011;22788;51.434;6.786;2023-05-10T07:29:26;22.15;;;13.95;;
36855;SDS011;22788;51.434;6.786;2023-05-10T07:31:51;26.23;;;17.40;;
36855;SDS011;22788;51.434;6.786;2023-05-10T07:34:17;38.80;;;23.00;;
36855;SDS011;22788;51.434;6.786;2023-05-10T07:36:42;38.20;;;24.73;;
36855;SDS011;22788;51.434;6.786;2023-05-10T07:39:08;39.37;;;24.63;;
36855;SDS011;22788;51.434;6.786;2023-05-10T07:41:34;36.45;;;20.50;;
36855;SDS011;22788;51.434;6.786;2023-05-10T07:44:01;37.25;;;19.88;;
36855;SDS011;22788;51.434;6.786;2023-05-10T07:46:27;31.90;;;18.38;;
36855;SDS011;22788;51.434;6.786;2023-05-10T07:48:53;33.42;;;18.45;;
36855;SDS011;22788;51.434;6.786;2023-05-10T07:51:19;32.33;;;17.42;;
36855;SDS011;22788;51.434;6.786;2023-05-10T07:53:45;27.80;;;16.13;;
36855;SDS011;22788;51.434;6.786;2023-05-10T07:56:21;34.15;;;17.45;;
36855;SDS011;22788;51.434;6.786;2023-05-10T07:58:47;32.35;;;16.95;;
36855;SDS011;22788;51.434;6.786;2023-05-10T08:01:14;27.67;;;16.58;;
36855;SDS011;22788;51.434;6.786;2023-05-10T08:03:40;30.17;;;16.33;;
36855;SDS011;22788;51.434;6.786;2023-05-10T08:06:06;30.73;;;16.75;;
36855;SDS011;22788;51.434;6.786;2023-05-10T08:08:32;27.30;;;16.17;;
36855;SDS011;22788;51.434;6.786;2023-05-10T08:10:58;30.98;;;16.52;;
36855;SDS011;22788;51.434;6.786;2023-05-10T08:13:24;26.23;;;15.27;;
36855;SDS011;22788;51.434;6.786;2023-05-10T08:15:50;29.02;;;16.05;;
36855;SDS011;22788;51.434;6.786;2023-05-10T08:18:17;30.85;;;16.40;;
36855;SDS011;22788;51.434;6.786;2023-05-10T08:20:43;27.17;;;15.95;;
36855;SDS011;22788;51.434;6.786;2023-05-10T08:23:09;30.67;;;16.60;;
36855;SDS011;22788;51.434;6.786;2023-05-10T08:25:35;31.23;;;17.45;;
36855;SDS011;22788;51.434;6.786;2023-05-10T08:28:01;29.75;;;15.93;;
36855;SDS011;22788;51.434;6.786;2023-05-10T08:30:28;26.40;;;15.82;;
36855;SDS011;22788;51.434;6.786;2023-05-10T08:32:53;31.27;;;16.58;;
36855;SDS011;22788;51.434;6.786;2023-05-10T08:35:21;27.73;;;16.00;;
36855;SDS011;22788;51.434;6.786;2023-05-10T08:37:47;30.67;;;17.63;;
36855;SDS011;22788;51.434;6.786;2023-05-10T08:40:13;28.35;;;16.23;;
36855;SDS011;22788;51.434;6.786;2023-05-10T08:42:40;28.88;;;16.83;;
36855;SDS011;22788;51.434;6.786;2023-05-10T08:45:08;28.13;;;15.55;;
36855;SDS011;22788;51.434;6.786;2023-05-10T08:47:34;30.85;;;16.35;;
36855;SDS011;22788;51.434;6.786;2023-05-10T08:50:01;30.83;;;16.55;;
36855;SDS011;22788;51.434;6.786;2023-05-10T08:52:30;30.38;;;17.30;;
36855;SDS011;22788;51.434;6.786;2023-05-10T08:54:56;27.95;;;16.17;;
36855;SDS011;22788;51.434;6.786;2023-05-10T08:57:22;28.63;;;16.33;;
36855;SDS011;22788;51.434;6.786;2023-05-10T08:59:48;27.55;;;16.02;;
36855;SDS011;22788;51.434;6.786;2023-05-10T09:02:14;27.42;;;14.82;;
36855;SDS011;22788;51.434;6.786;2023-05-10T09:04:40;26.70;;;15.77;;
36855;SDS011;22788;51.434;6.786;2023-05-10T09:07:06;25.85;;;15.18;;
36855;SDS011;22788;51.434;6.786;2023-05-10T09:09:34;28.38;;;17.52;;
36855;SDS011;22788;51.434;6.786;2023-05-10T09:12:00;31.33;;;16.05;;
36855;SDS011;22788;51.434;6.786;2023-05-10T09:14:26;25.67;;;15.80;;
36855;SDS011;22788;51.434;6.786;2023-05-10T09:16:53;24.40;;;15.20;;
36855;SDS011;22788;51.434;6.786;2023-05-10T09:19:19;27.48;;;15.15;;
36855;SDS011;22788;51.434;6.786;2023-05-10T09:21:45;28.65;;;16.08;;
36855;SDS011;22788;51.434;6.786;2023-05-10T09:24:11;27.63;;;14.82;;
36855;SDS011;22788;51.434;6.786;2023-05-10T09:26:44;23.20;;;13.95;;
36855;SDS011;22788;51.434;6.786;2023-05-10T09:29:11;23.38;;;13.32;;
36855;SDS011;22788;51.434;6.786;2023-05-10T09:31:44;26.77;;;16.35;;
36855;SDS011;22788;51.434;6.786;2023-05-10T09:34:10;23.48;;;15.77;;
36855;SDS011;22788;51.434;6.786;2023-05-10T09:36:36;23.83;;;14.00;;
36855;SDS011;22788;51.434;6.786;2023-05-10T09:39:01;24.00;;;13.55;;
36855;SDS011;22788;51.434;6.786;2023-05-10T09:41:27;21.17;;;13.45;;
36855;SDS011;22788;51.434;6.786;2023-05-10T09:43:56;26.73;;;14.88;;
36855;SDS011;22788;51.434;6.786;2023-05-10T09:46:21;23.65;;;14.68;;
36855;SDS011;22788;51.434;6.786;2023-05-10T09:48:48;22.27;;;13.07;;
36855;SDS011;22788;51.434;6.786;2023-05-10T09:51:20;24.60;;;14.20;;
36855;SDS011;22788;51.434;6.786;2023-05-10T09:53:46;21.73;;;13.43;;
36855;SDS011;22788;51.434;6.786;2023-05-10T09:56:12;22.02;;;13.40;;
36855;SDS011;22788;51.434;6.786;2023-05-10T09:58:38;26.15;;;14.70;;
36855;SDS011;22788;51.434;6.786;2023-05-10T10:01:05;20.52;;;12.45;;
36855;SDS011;22788;51.434;6.786;2023-05-10T10:03:40;18.30;;;12.40;;
36855;SDS011;22788;51.434;6.786;2023-05-10T10:06:07;25.10;;;13.40;;
36855;SDS011;22788;51.434;6.786;2023-05-10T10:08:33;22.63;;;13.88;;
36855;SDS011;22788;51.434;6.786;2023-05-10T10:10:59;21.38;;;12.77;;
36855;SDS011;22788;51.434;6.786;2023-05-10T10:13:24;23.25;;;13.27;;
36855;SDS011;22788;51.434;6.786;2023-05-10T10:15:50;18.23;;;11.38;;
36855;SDS011;22788;51.434;6.786;2023-05-10T10:18:18;18.48;;;11.80;;
36855;SDS011;22788;51.434;6.786;2023-05-10T10:20:45;19.08;;;11.85;;
36855;SDS011;22788;51.434;6.786;2023-05-10T10:23:11;21.25;;;13.15;;
36855;SDS011;22788;51.434;6.786;2023-05-10T10:25:37;22.08;;;12.27;;
36855;SDS011;22788;51.434;6.786;2023-05-10T10:28:07;19.25;;;12.23;;
36855;SDS011;22788;51.434;6.786;2023-05-10T10:30:41;22.30;;;12.90;;
36855;SDS011;22788;51.434;6.786;2023-05-10T10:33:13;18.55;;;11.27;;
36855;SDS011;22788;51.434;6.786;2023-05-10T10:35:55;22.40;;;12.45;;
36855;SDS011;22788;51.434;6.786;2023-05-10T10:38:23;19.65;;;12.13;;
36855;SDS011;22788;51.434;6.786;2023-05-10T10:40:49;21.52;;;13.25;;
36855;SDS011;22788;51.434;6.786;2023-05-10T10:43:27;15.98;;;10.68;;
36855;SDS011;22788;51.434;6.786;2023-05-10T10:46:10;22.50;;;12.82;;
36855;SDS011;22788;51.434;6.786;2023-05-10T10:48:38;21.27;;;12.30;;
36855;SDS011;22788;51.434;6.786;2023-05-10T10:51:04;17.50;;;12.27;;
36855;SDS011;22788;51.434;6.786;2023-05-10T10:53:29;19.90;;;12.30;;
36855;SDS011;22788;51.434;6.786;2023-05-10T10:56:02;16.90;;;10.85;;
36855;SDS011;22788;51.434;6.786;2023-05-10T10:58:31;17.33;;;11.00;;
36855;SDS011;22788;51.434;6.786;2023-05-10T11:01:08;16.30;;;11.75;;
36855;SDS011;22788;51.434;6.786;2023-05-10T11:03:39;20.55;;;12.70;;
36855;SDS011;22788;51.434;6.786;2023-05-10T11:06:05;18.70;;;10.13;;
36855;SDS011;22788;51.434;6.786;2023-05-10T11:08:31;16.52;;;11.25;;
36855;SDS011;22788;51.434;6.786;2023-05-10T11:11:05;20.63;;;13.32;;
36855;SDS011;22788;51.434;6.786;2023-05-10T11:13:31;17.40;;;11.30;;
36855;SDS011;22788;51.434;6.786;2023-05-10T11:15:58;21.77;;;13.43;;
36855;SDS011;22788;51.434;6.786;2023-05-10T11:18:34;25.80;;;13.63;;
36855;SDS011;22788;51.434;6.786;2023-05-10T11:21:03;20.50;;;12.27;;
36855;SDS011;22788;51.434;6.786;2023-05-10T11:23:29;16.92;;;11.75;;
36855;SDS011;22788;51.434;6.786;2023-05-10T11:25:56;20.60;;;12.13;;
36855;SDS011;22788;51.434;6.786;2023-05-10T11:28:21;15.18;;;10.63;;
36855;SDS011;22788;51.434;6.786;2023-05-10T11:30:47;17.60;;;11.38;;
36855;SDS011;22788;51.434;6.786;2023-05-10T11:33:16;16.30;;;11.55;;
36855;SDS011;22788;51.434;6.786;2023-05-10T11:35:43;19.50;;;12.07;;
36855;SDS011;22788;51.434;6.786;2023-05-10T11:38:10;18.85;;;11.73;;
36855;SDS011;22788;51.434;6.786;2023-05-10T11:40:37;17.70;;;10.48;;
36855;SDS011;22788;51.434;6.786;2023-05-10T11:43:03;15.40;;;10.05;;
36855;SDS011;22788;51.434;6.786;2023-05-10T11:45:31;15.77;;;11.48;;
36855;SDS011;22788;51.434;6.786;2023-05-10T11:47:57;14.73;;;9.63;;
36855;SDS011;22788;51.434;6.786;2023-05-10T11:50:23;17.80;;;10.20;;
36855;SDS011;22788;51.434;6.786;2023-05-10T11:52:50;16.25;;;9.73;;
36855;SDS011;22788;51.434;6.786;2023-05-10T11:55:18;15.18;;;9.07;;
36855;SDS011;22788;51.434;6.786;2023-05-10T11:57:44;17.40;;;9.57;;
36855;SDS011;22788;51.434;6.786;2023-05-10T12:00:10;11.27;;;8.15;;
36855;SDS011;22788;51.434;6.786;2023-05-10T12:02:36;12.60;;;7.70;;
36855;SDS011;22788;51.434;6.786;2023-05-10T12:05:02;13.02;;;8.50;;
36855;SDS011;22788;51.434;6.786;2023-05-10T12:07:29;11.95;;;8.32;;
36855;SDS011;22788;51.434;6.786;2023-05-10T12:10:05;12.48;;;8.32;;
36855;SDS011;22788;51.434;6.786;2023-05-10T12:15:17;11.50;;;8.07;;
36855;SDS011;22788;51.434;6.786;2023-05-10T12:17:44;8.77;;;7.22;;
36855;SDS011;22788;51.434;6.786;2023-05-10T12:20:13;10.05;;;6.68;;
36855;SDS011;22788;51.434;6.786;2023-05-10T12:22:43;12.50;;;7.55;;
36855;SDS011;22788;51.434;6.786;2023-05-10T12:25:13;11.02;;;6.95;;
36855;SDS011;22788;51.434;6.786;2023-05-10T12:27:39;10.23;;;7.13;;
36855;SDS011;22788;51.434;6.786;2023-05-10T12:30:07;9.55;;;6.97;;
36855;SDS011;22788;51.434;6.786;2023-05-10T12:32:39;12.20;;;6.78;;
36855;SDS011;22788;51.434;6.786;2023-05-10T12:35:06;7.60;;;6.18;;
36855;SDS011;22788;51.434;6.786;2023-05-10T12:37:32;8.60;;;6.18;;
36855;SDS011;22788;51.434;6.786;2023-05-10T12:39:58;9.13;;;6.47;;
36855;SDS011;22788;51.434;6.786;2023-05-10T12:42:23;9.35;;;6.05;;
36855;SDS011;22788;51.434;6.786;2023-05-10T12:44:49;7.85;;;6.25;;
36855;SDS011;22788;51.434;6.786;2023-05-10T12:47:20;10.75;;;6.47;;
36855;SDS011;22788;51.434;6.786;2023-05-10T12:49:46;9.88;;;6.38;;
36855;SDS011;22788;51.434;6.786;2023-05-10T12:52:11;9.77;;;6.47;;
36855;SDS011;22788;51.434;6.786;2023-05-10T12:54:37;9.75;;;6.65;;
36855;SDS011;22788;51.434;6.786;2023-05-10T12:57:02;8.60;;;5.95;;
36855;SDS011;22788;51.434;6.786;2023-05-10T12:59:28;11.85;;;6.43;;
36855;SDS011;22788;51.434;6.786;2023-05-10T13:01:54;7.03;;;5.72;;
36855;SDS011;22788;51.434;6.786;2023-05-10T13:04:21;9.60;;;6.70;;
36855;SDS011;22788;51.434;6.786;2023-05-10T13:06:46;8.32;;;6.25;;
36855;SDS011;22788;51.434;6.786;2023-05-10T13:09:12;8.60;;;6.45;;
36855;SDS011;22788;51.434;6.786;2023-05-10T13:11:37;11.38;;;5.53;;
36855;SDS011;22788;51.434;6.786;2023-05-10T13:14:03;11.70;;;7.53;;
36855;SDS011;22788;51.434;6.786;2023-05-10T13:16:29;9.18;;;6.78;;
36855;SDS011;22788;51.434;6.786;2023-05-10T13:18:54;7.38;;;6.25;;
36855;SDS011;22788;51.434;6.786;2023-05-10T13:21:21;9.77;;;6.90;;
36855;SDS011;22788;51.434;6.786;2023-05-10T13:23:47;13.60;;;7.28;;
36855;SDS011;22788;51.434;6.786;2023-05-10T13:26:12;10.18;;;5.38;;
36855;SDS011;22788;51.434;6.786;2023-05-10T13:28:38;8.73;;;5.93;;
36855;SDS011;22788;51.434;6.786;2023-05-10T13:31:03;9.73;;;6.20;;
36855;SDS011;22788;51.434;6.786;2023-05-10T13:33:29;8.55;;;6.28;;
36855;SDS011;22788;51.434;6.786;2023-05-10T13:35:55;9.18;;;6.40;;
36855;SDS011;22788;51.434;6.786;2023-05-10T13:38:22;11.25;;;6.13;;
36855;SDS011;22788;51.434;6.786;2023-05-10T13:40:47;6.70;;;5.60;;
36855;SDS011;22788;51.434;6.786;2023-05-10T13:43:13;8.05;;;6.25;;
36855;SDS011;22788;51.434;6.786;2023-05-10T13:45:38;10.32;;;6.78;;
36855;SDS011;22788;51.434;6.786;2023-05-10T13:48:04;9.70;;;6.53;;
36855;SDS011;22788;51.434;6.786;2023-05-10T13:50:30;7.88;;;5.80;;
36855;SDS011;22788;51.434;6.786;2023-05-10T13:52:55;8.48;;;6.05;;
36855;SDS011;22788;51.434;6.786;2023-05-10T13:55:22;11.63;;;6.97;;
36855;SDS011;22788;51.434;6.786;2023-05-10T13:57:48;8.02;;;6.25;;
36855;SDS011;22788;51.434;6.786;2023-05-10T14:00:14;10.30;;;7.32;;
36855;SDS011;22788;51.434;6.786;2023-05-10T14:02:40;10.40;;;6.97;;
36855;SDS011;22788;51.434;6.786;2023-05-10T14:05:05;8.73;;;6.68;;
36855;SDS011;22788;51.434;6.786;2023-05-10T14:07:31;6.07;;;4.78;;
36855;SDS011;22788;51.434;6.786;2023-05-10T14:09:57;8.18;;;5.93;;
36855;SDS011;22788;51.434;6.786;2023-05-10T14:12:24;7.80;;;6.32;;
36855;SDS011;22788;51.434;6.786;2023-05-10T14:14:50;9.82;;;5.78;;
36855;SDS011;22788;51.434;6.786;2023-05-10T14:17:15;7.78;;;6.00;;
36855;SDS011;22788;51.434;6.786;2023-05-10T14:19:41;9.48;;;6.80;;
36855;SDS011;22788;51.434;6.786;2023-05-10T14:22:06;10.85;;;6.97;;
36855;SDS011;22788;51.434;6.786;2023-05-10T14:24:32;8.18;;;5.97;;
36855;SDS011;22788;51.434;6.786;2023-05-10T14:26:57;8.80;;;6.03;;
36855;SDS011;22788;51.434;6.786;2023-05-10T14:29:24;8.48;;;6.15;;
36855;SDS011;22788;51.434;6.786;2023-05-10T14:31:50;7.95;;;6.15;;
36855;SDS011;22788;51.434;6.786;2023-05-10T14:34:16;9.52;;;6.70;;
36855;SDS011;22788;51.434;6.786;2023-05-10T14:36:41;9.40;;;6.10;;
36855;SDS011;22788;51.434;6.786;2023-05-10T14:39:07;8.35;;;6.13;;